Terminal Aerodrome Forecast
Issued by NWS Newport/Morehead City, NC

Home | Current Version | Previous Version | Graphics & Text | Print | Product List | Glossary On
Versions: 1 2 3 4 5 6 7 8 9 10 11 12 13 14 15 16 17 18 19 20 21 22
000
FTUS42 KMHX 250559 CCA
TAFEWN
TAF COR
KEWN 250559Z 2506/2606 11012G20KT 5SM -SHRA SCT007 OVC015
      TEMPO 2506/2507 2SM SHRA BKN007
     FM251200 20010G15KT P6SM VCSH BKN025
     FM251500 21009KT P6SM VCSH SCT025 BKN040
     FM252300 24005KT P6SM SCT025 BKN040=

USA.gov is the U.S. government's official web portal to all federal, state and local government web resources and services.